This is the latest recevied weather packets stored in our database for station/object DL1VED. If no packets are shown the sender has not sent any weather packets the latest 10 day(s).
| Time | Temp. | Humidity | Pressure | Rain* | Wind** | Luminosity | Snow |
|---|---|---|---|---|---|---|---|
| 1778284743 | 9.44° C | 75% | 1017.8 hPa | 0 mm | - | - | - |
| 1778283843 | 9.44° C | 75% | 1017.8 hPa | 0 mm | - | - | - |
| 1778282943 | 9.44° C | 75% | 1017.7 hPa | 0 mm | - | - | - |
| 1778282043 | 9.44° C | 75% | 1017.8 hPa | 0 mm | - | - | - |
| 1778281143 | 10° C | 74% | 1017.9 hPa | 0 mm | - | - | - |
| 1778280243 | 10° C | 74% | 1017.9 hPa | 0 mm | - | - | - |
| 1778279343 | 10.56° C | 73% | 1017.9 hPa | 0 mm | - | - | - |
| 1778278443 | 10.56° C | 73% | 1017.8 hPa | 0 mm | - | - | - |
| 1778277543 | 10.56° C | 73% | 1017.8 hPa | 0 mm | - | - | - |
| 1778276643 | 11.11° C | 72% | 1017.8 hPa | 0 mm | - | - | - |
| 1778275743 | 11.11° C | 72% | 1017.7 hPa | 0 mm | - | - | - |
| 1778274843 | 11.11° C | 72% | 1017.6 hPa | 0 mm | - | - | - |
| 1778273943 | 11.11° C | 71% | 1017.6 hPa | 0 mm | - | - | - |
| 1778273043 | 11.11° C | 70% | 1017.6 hPa | 0 mm | - | - | - |
| 1778272143 | 11.67° C | 69% | 1017.6 hPa | 0 mm | - | - | - |
| 1778271243 | 11.67° C | 68% | 1017.6 hPa | 0 mm | - | - | - |
| 1778270343 | 12.22° C | 66% | 1017.5 hPa | 0 mm | - | - | - |
| 1778269443 | 12.22° C | 65% | 1017.2 hPa | 0 mm | - | - | - |
| 1778268543 | 12.78° C | 64% | 1017.1 hPa | 0 mm | - | - | - |
| 1778267643 | 13.33° C | 62% | 1016.9 hPa | 0 mm | - | - | - |
| 1778266743 | 14.44° C | 58% | 1016.7 hPa | 0 mm | - | - | - |
| 1778265843 | 15° C | 53% | 1016.5 hPa | 0 mm | - | - | - |
| 1778264943 | 15.56° C | 50% | 1016.3 hPa | 0 mm | - | - | - |
| 1778264043 | 16.11° C | 49% | 1016.2 hPa | 0 mm | - | - | - |
| 1778263143 | 16.67° C | 47% | 1016 hPa | 0 mm | - | - | - |
* Rain latest hour (hover to see other rain measurements)
** Current wind speed in m/s (hover to see current wind gust speed)